createdAt,value
2022-12-09T00:01:36.089Z,98796.00
2022-12-09T00:04:05.475Z,98796.81
2022-12-09T00:06:35.361Z,98809.63
2022-12-09T00:09:04.707Z,98809.63
2022-12-09T00:11:34.349Z,98803.53
2022-12-09T00:14:03.644Z,98803.50
2022-12-09T00:16:33.052Z,98803.47
2022-12-09T00:19:02.354Z,98795.69
2022-12-09T00:21:33.773Z,98792.22
2022-12-09T00:24:08.153Z,98783.56
2022-12-09T00:26:37.569Z,98793.09
2022-12-09T00:29:07.275Z,98785.38
2022-12-09T00:31:38.528Z,98790.50
2022-12-09T00:34:13.722Z,98787.09
2022-12-09T00:36:43.321Z,98782.88
2022-12-09T00:39:13.377Z,98789.09
2022-12-09T00:41:42.612Z,98793.28
2022-12-09T00:44:13.244Z,98788.09
2022-12-09T00:46:42.575Z,98801.03
2022-12-09T00:49:12.686Z,98807.91
2022-12-09T00:51:41.832Z,98816.53
2022-12-09T00:54:11.085Z,98817.41
2022-12-09T00:56:40.346Z,98826.00
2022-12-09T00:59:09.979Z,98836.25
2022-12-09T01:01:44.524Z,98827.59
2022-12-09T01:04:16.183Z,98822.44
2022-12-09T01:06:48.519Z,98828.50
2022-12-09T01:09:19.644Z,98837.06
2022-12-09T01:11:50.618Z,98835.34
2022-12-09T01:14:21.246Z,98840.56
2022-12-09T01:16:52.527Z,98840.53
2022-12-09T01:19:23.183Z,98841.34
2022-12-09T01:21:57.624Z,98837.09
2022-12-09T01:24:28.137Z,98841.41
2022-12-09T01:26:59.166Z,98849.09
2022-12-09T01:29:29.925Z,98849.09
2022-12-09T01:32:00.972Z,98856.78
2022-12-09T01:34:31.398Z,98845.56
2022-12-09T01:37:01.889Z,98843.84
2022-12-09T01:39:32.423Z,98844.69
2022-12-09T01:42:08.067Z,98849.81
2022-12-09T01:44:38.371Z,98852.44
2022-12-09T01:47:25.020Z,98850.63
2022-12-09T01:49:55.747Z,98855.03
2022-12-09T01:52:27.419Z,98857.66
2022-12-09T01:54:58.470Z,98865.25
2022-12-09T01:57:29.022Z,98873.16
2022-12-09T01:59:59.203Z,98869.75
2022-12-09T02:02:32.099Z,98876.63
2022-12-09T02:05:02.955Z,98874.88
2022-12-09T02:07:34.427Z,98874.84
2022-12-09T02:10:10.585Z,98890.22
2022-12-09T02:12:52.382Z,98888.44
2022-12-09T02:15:44.976Z,98892.69
2022-12-09T02:18:23.136Z,98896.94
2022-12-09T02:21:04.567Z,98905.53
2022-12-09T02:24:18.040Z,98906.38
2022-12-09T02:27:20.830Z,98914.13
2022-12-09T02:30:08.472Z,98923.59
2022-12-09T02:33:07.381Z,98932.16
2022-12-09T02:35:45.831Z,98939.91
2022-12-09T02:38:28.283Z,98947.59
2022-12-09T02:41:17.164Z,98949.28
2022-12-09T02:43:56.290Z,98946.66
2022-12-09T02:46:33.570Z,98945.81
2022-12-09T02:49:06.937Z,98947.50
2022-12-09T02:51:43.406Z,98946.59
2022-12-09T02:54:18.916Z,98955.97
2022-12-09T02:57:02.922Z,98948.09
2022-12-09T02:59:33.820Z,98965.38
2022-12-09T03:02:30.236Z,98958.34
2022-12-09T03:05:12.587Z,98961.72
2022-12-09T03:08:13.412Z,98960.78
2022-12-09T03:10:52.229Z,98972.78
2022-12-09T03:13:46.883Z,98967.59
2022-12-09T03:16:29.803Z,98976.88
2022-12-09T03:19:18.591Z,98981.16
2022-12-09T03:21:51.870Z,98992.28
2022-12-09T03:24:28.365Z,98982.69
2022-12-09T03:27:04.102Z,98977.50
2022-12-09T03:29:38.824Z,98967.13
2022-12-09T03:32:14.655Z,98973.84
2022-12-09T03:34:49.441Z,98978.06
2022-12-09T03:37:23.353Z,98975.44
2022-12-09T03:39:56.622Z,98977.09
2022-12-09T03:42:39.736Z,98976.88
2022-12-09T03:45:14.073Z,98993.22
2022-12-09T03:47:44.500Z,98997.56
2022-12-09T03:50:16.535Z,99005.25
2022-12-09T03:53:02.873Z,99011.81
2022-12-09T03:55:44.669Z,99014.31
2022-12-09T03:58:16.369Z,99016.03
2022-12-09T04:00:49.132Z,99018.53
2022-12-09T04:03:23.468Z,99015.78
2022-12-09T04:05:53.649Z,99019.06
2022-12-09T04:08:23.371Z,99018.16
2022-12-09T04:10:53.397Z,99018.88
2022-12-09T04:13:23.085Z,99012.66
2022-12-09T04:15:52.948Z,99016.00
2022-12-09T04:18:23.309Z,99021.06
2022-12-09T04:20:53.018Z,99024.25
2022-12-09T04:23:23.312Z,99019.81
2022-12-09T04:25:53.104Z,99022.22
2022-12-09T04:28:22.471Z,99022.19
2022-12-09T04:30:52.456Z,99030.56
2022-12-09T04:33:22.879Z,99030.47
2022-12-09T04:35:52.810Z,99025.03
2022-12-09T04:38:22.176Z,99034.53
2022-12-09T04:40:54.216Z,99031.59
2022-12-09T04:43:24.060Z,99031.34
2022-12-09T04:45:55.102Z,99025.22
2022-12-09T04:48:24.834Z,99027.47
2022-12-09T04:50:54.851Z,99028.19
2022-12-09T04:53:24.947Z,99028.13
2022-12-09T04:56:06.496Z,99025.88
2022-12-09T04:58:37.219Z,99027.69
2022-12-09T05:01:12.088Z,99035.97
2022-12-09T05:03:42.757Z,99035.25
2022-12-09T05:06:16.458Z,99037.53
2022-12-09T05:08:47.913Z,99039.97
2022-12-09T05:11:19.461Z,99041.63
2022-12-09T05:13:50.336Z,99033.69
2022-12-09T05:16:21.436Z,99040.63
2022-12-09T05:18:51.738Z,99049.88
2022-12-09T05:21:23.061Z,99054.78
2022-12-09T05:23:53.600Z,99040.00
2022-12-09T05:26:24.949Z,99041.47
2022-12-09T05:29:17.892Z,99038.94
2022-12-09T05:31:52.542Z,99040.59
2022-12-09T05:34:22.895Z,99036.88
2022-12-09T05:36:53.059Z,99037.72
2022-12-09T05:39:22.733Z,99048.16
2022-12-09T05:41:52.352Z,99042.31
2022-12-09T05:44:22.019Z,99036.28
2022-12-09T05:46:52.071Z,99030.16
2022-12-09T05:49:22.242Z,99029.91
2022-12-09T05:51:52.076Z,99028.59
2022-12-09T05:54:22.371Z,99027.88
2022-12-09T05:56:52.105Z,99018.69
2022-12-09T05:59:22.684Z,99024.41
2022-12-09T06:01:52.824Z,99020.91
2022-12-09T06:04:23.657Z,99015.50
2022-12-09T06:06:53.553Z,99018.03
2022-12-09T06:09:24.191Z,99017.78
2022-12-09T06:11:54.129Z,99013.31
2022-12-09T06:14:24.162Z,99006.03
2022-12-09T06:16:53.907Z,98999.19
2022-12-09T06:19:25.321Z,98994.44
2022-12-09T06:21:55.437Z,98994.88
2022-12-09T06:24:25.741Z,98982.91
2022-12-09T06:26:55.784Z,98988.81
2022-12-09T06:29:25.762Z,98981.78
2022-12-09T06:31:55.612Z,98981.47
2022-12-09T06:34:25.730Z,98971.81
2022-12-09T06:36:55.998Z,98980.66
2022-12-09T06:39:28.027Z,98981.56
2022-12-09T06:42:00.628Z,98971.22
2022-12-09T06:44:30.777Z,98966.41
2022-12-09T06:47:00.543Z,98965.25
2022-12-09T06:49:30.826Z,98955.38
2022-12-09T06:52:01.217Z,98945.84
2022-12-09T06:54:31.064Z,98946.69
2022-12-09T06:57:00.723Z,98943.75
2022-12-09T06:59:30.565Z,98937.53
2022-12-09T07:02:00.830Z,98931.09
2022-12-09T07:04:31.187Z,98928.19
2022-12-09T07:07:01.514Z,98925.88
2022-12-09T07:09:31.670Z,98914.97
2022-12-09T07:12:01.686Z,98917.56
2022-12-09T07:14:31.340Z,98912.13
2022-12-09T07:17:02.422Z,98907.47
2022-12-09T07:19:33.052Z,98895.69
2022-12-09T07:22:03.646Z,98896.34
2022-12-09T07:24:33.413Z,98899.66
2022-12-09T07:27:08.102Z,98889.22
2022-12-09T07:29:40.261Z,98885.69
2022-12-09T07:32:13.144Z,98882.56
2022-12-09T07:34:44.077Z,98880.78
2022-12-09T07:37:15.124Z,98879.78
2022-12-09T07:39:45.577Z,98882.09
2022-12-09T07:42:15.711Z,98873.22
2022-12-09T07:44:55.221Z,98866.16
2022-12-09T07:47:25.549Z,98862.03
2022-12-09T07:49:55.255Z,98861.88
2022-12-09T07:52:25.903Z,98857.44
2022-12-09T07:54:56.403Z,98857.44
2022-12-09T07:57:26.754Z,98848.56
2022-12-09T07:59:58.126Z,98840.66
2022-12-09T08:02:28.401Z,98832.56
2022-12-09T08:04:58.428Z,98838.06
2022-12-09T08:07:28.585Z,98835.66
2022-12-09T08:09:58.910Z,98831.44
2022-12-09T08:12:29.585Z,98822.41
2022-12-09T08:15:00.212Z,98819.19
2022-12-09T08:17:31.784Z,98809.84
2022-12-09T08:20:02.258Z,98798.19
2022-12-09T08:22:32.463Z,98813.72
2022-12-09T08:25:02.013Z,98800.16
2022-12-09T08:27:32.454Z,98794.00
2022-12-09T08:30:02.603Z,98785.41
2022-12-09T08:32:33.461Z,98784.50
2022-12-09T08:35:03.654Z,98777.84
2022-12-09T08:37:33.421Z,98781.34
2022-12-09T08:40:02.854Z,98776.31
2022-12-09T08:42:32.885Z,98763.38
2022-12-09T08:45:03.183Z,98770.06
2022-12-09T08:47:33.829Z,98762.44
2022-12-09T08:50:04.112Z,98769.16
2022-12-09T08:52:40.106Z,98763.59
2022-12-09T08:55:11.491Z,98763.25
2022-12-09T08:57:41.803Z,98760.59
2022-12-09T09:00:12.483Z,98753.97
2022-12-09T09:02:46.643Z,98749.19
2022-12-09T09:05:16.991Z,98747.78
2022-12-09T09:07:47.898Z,98757.38
2022-12-09T09:10:19.122Z,98753.25
2022-12-09T09:12:49.284Z,98748.16
2022-12-09T09:15:18.716Z,98742.13
2022-12-09T09:17:51.604Z,98744.50
2022-12-09T09:20:21.859Z,98740.91
2022-12-09T09:22:54.102Z,98737.34
2022-12-09T09:25:26.268Z,98744.78
2022-12-09T09:27:55.980Z,98740.19
2022-12-09T09:30:25.479Z,98735.81
2022-12-09T09:32:56.076Z,98723.34
2022-12-09T09:35:25.424Z,98723.59
2022-12-09T09:37:56.172Z,98729.06
2022-12-09T09:40:25.863Z,98725.72
2022-12-09T09:42:57.409Z,98723.28
2022-12-09T09:45:27.500Z,98717.19
2022-12-09T09:48:04.017Z,98714.31
2022-12-09T09:50:52.459Z,98721.78
2022-12-09T09:53:33.603Z,98722.81
2022-12-09T09:56:26.906Z,98711.06
2022-12-09T09:59:03.520Z,98705.84
2022-12-09T10:01:38.266Z,98709.22
2022-12-09T10:04:22.332Z,98708.06
2022-12-09T10:07:24.999Z,98702.28
2022-12-09T10:10:28.547Z,98700.75
2022-12-09T10:13:40.836Z,98698.34
2022-12-09T10:16:33.049Z,98689.88
2022-12-09T10:19:17.984Z,98686.19
2022-12-09T10:21:50.462Z,98687.88
2022-12-09T10:24:25.040Z,98684.00
2022-12-09T10:27:00.836Z,98676.72
2022-12-09T10:29:55.933Z,98687.63
2022-12-09T10:32:32.721Z,98678.69
2022-12-09T10:35:03.760Z,98675.97
2022-12-09T10:37:38.254Z,98676.28
2022-12-09T10:40:14.819Z,98678.31
2022-12-09T10:43:14.458Z,98672.63
2022-12-09T10:46:17.220Z,98679.22
2022-12-09T10:48:50.538Z,98670.88
2022-12-09T10:51:29.168Z,98667.19
2022-12-09T10:54:06.352Z,98667.38
2022-12-09T10:56:41.915Z,98663.78
2022-12-09T10:59:25.924Z,98657.78
2022-12-09T11:02:11.073Z,98656.34
2022-12-09T11:04:44.460Z,98657.16
2022-12-09T11:07:14.861Z,98663.28
2022-12-09T11:09:52.272Z,98652.72
2022-12-09T11:12:36.726Z,98649.16
2022-12-09T11:15:33.286Z,98647.88
2022-12-09T11:18:21.258Z,98654.63
2022-12-09T11:21:05.074Z,98646.13
2022-12-09T11:23:36.900Z,98649.91
2022-12-09T11:26:25.883Z,98650.25
2022-12-09T11:29:14.268Z,98650.63
2022-12-09T11:31:44.897Z,98654.00
2022-12-09T11:34:28.382Z,98647.38
2022-12-09T11:37:03.788Z,98648.66
2022-12-09T11:39:37.008Z,98653.09
2022-12-09T11:42:19.810Z,98654.19
2022-12-09T11:45:06.331Z,98652.19
2022-12-09T11:48:20.329Z,98654.28
2022-12-09T11:50:34.658Z,98660.69
2022-12-09T11:53:27.037Z,98658.72
2022-12-09T11:56:20.035Z,98658.91
2022-12-09T11:58:55.897Z,98660.41
2022-12-09T12:02:03.472Z,98660.38
2022-12-09T12:04:37.968Z,98657.50
2022-12-09T12:07:17.329Z,98667.00
2022-12-09T12:09:58.197Z,98662.84
2022-12-09T12:12:37.638Z,98655.50
2022-12-09T12:15:28.330Z,98655.28
2022-12-09T12:17:58.716Z,98657.63
2022-12-09T12:21:00.024Z,98660.94
2022-12-09T12:23:53.015Z,98660.84
2022-12-09T12:26:33.340Z,98655.09
2022-12-09T12:29:15.279Z,98660.63
2022-12-09T12:32:25.257Z,98670.03
2022-12-09T12:35:11.148Z,98670.91
2022-12-09T12:38:07.586Z,98663.53
2022-12-09T12:40:49.440Z,98671.44
2022-12-09T12:43:51.946Z,98676.03
2022-12-09T12:46:34.059Z,98675.38
2022-12-09T12:49:29.223Z,98684.97
2022-12-09T12:52:54.236Z,98684.25
2022-12-09T12:55:22.215Z,98682.31
2022-12-09T12:57:55.497Z,98689.06
2022-12-09T13:00:33.686Z,98691.88
2022-12-09T13:03:25.554Z,98688.28
2022-12-09T13:05:58.558Z,98693.59
2022-12-09T13:08:32.568Z,98684.25
2022-12-09T13:11:10.286Z,98695.50
2022-12-09T13:13:51.131Z,98690.50
2022-12-09T13:16:24.209Z,98692.69
2022-12-09T13:18:55.334Z,98699.00
2022-12-09T13:21:25.734Z,98696.47
2022-12-09T13:24:22.983Z,98698.91
2022-12-09T13:27:03.390Z,98698.22
2022-12-09T13:29:45.973Z,98694.84
2022-12-09T13:32:15.529Z,98698.84
2022-12-09T13:34:57.772Z,98695.09
2022-12-09T13:37:55.849Z,98689.22
2022-12-09T13:40:40.377Z,98689.50
2022-12-09T13:43:20.604Z,98698.50
2022-12-09T13:45:53.284Z,98703.94
2022-12-09T13:48:23.372Z,98697.25
2022-12-09T13:50:52.972Z,98703.44
2022-12-09T13:53:22.523Z,98702.72
2022-12-09T13:56:03.852Z,98703.25
2022-12-09T13:58:54.313Z,98700.81
2022-12-09T14:01:49.742Z,98704.47
2022-12-09T14:04:39.197Z,98714.00
2022-12-09T14:07:34.811Z,98712.06
2022-12-09T14:10:05.900Z,98709.00
2022-12-09T14:12:42.556Z,98711.72
2022-12-09T14:15:26.417Z,98717.47
2022-12-09T14:18:01.846Z,98722.00
2022-12-09T14:20:34.845Z,98718.81
2022-12-09T14:23:18.008Z,98725.63
2022-12-09T14:25:58.790Z,98728.63
2022-12-09T14:28:51.540Z,98737.78
2022-12-09T14:31:50.089Z,98739.78
2022-12-09T14:34:28.712Z,98739.22
2022-12-09T14:37:24.375Z,98740.31
2022-12-09T14:40:05.449Z,98741.28
2022-12-09T14:42:49.908Z,98736.34
2022-12-09T14:45:46.105Z,98741.75
2022-12-09T14:48:22.574Z,98743.09
2022-12-09T14:51:21.034Z,98747.25
2022-12-09T14:53:58.209Z,98745.88
2022-12-09T14:56:29.659Z,98759.00
2022-12-09T14:59:10.599Z,98753.63
2022-12-09T15:02:09.460Z,98761.97
2022-12-09T15:04:48.245Z,98754.44
2022-12-09T15:07:26.179Z,98750.00
2022-12-09T15:10:09.609Z,98753.41
2022-12-09T15:12:46.748Z,98761.44
2022-12-09T15:15:28.029Z,98764.28
2022-12-09T15:18:15.534Z,98763.16
2022-12-09T15:20:55.889Z,98764.09
2022-12-09T15:23:31.045Z,98765.81
2022-12-09T15:26:08.668Z,98762.19
2022-12-09T15:28:39.513Z,98766.69
2022-12-09T15:31:20.992Z,98771.56
2022-12-09T15:33:53.372Z,98769.88
2022-12-09T15:36:46.679Z,98769.59
2022-12-09T15:39:21.798Z,98774.31
2022-12-09T15:42:13.404Z,98779.97
2022-12-09T15:44:51.628Z,98770.50
2022-12-09T15:47:25.775Z,98777.38
2022-12-09T15:50:15.803Z,98781.75
2022-12-09T15:53:06.501Z,98778.41
2022-12-09T15:55:53.047Z,98784.34
2022-12-09T15:58:28.667Z,98780.28
2022-12-09T16:00:59.399Z,98788.38
2022-12-09T16:03:32.787Z,98792.56
2022-12-09T16:06:08.542Z,98785.63
2022-12-09T16:08:47.253Z,98789.88
2022-12-09T16:11:37.168Z,98792.50
2022-12-09T16:14:09.763Z,98798.13
2022-12-09T16:16:52.339Z,98803.19
2022-12-09T16:19:42.318Z,98795.25
2022-12-09T16:22:30.158Z,98815.38
2022-12-09T16:25:14.597Z,98812.00
2022-12-09T16:27:50.420Z,98818.13
2022-12-09T16:30:26.594Z,98821.56
2022-12-09T16:33:02.571Z,98812.84
2022-12-09T16:35:48.179Z,98813.56
2022-12-09T16:38:20.878Z,98820.72
2022-12-09T16:40:56.404Z,98828.00
2022-12-09T16:43:28.884Z,98830.22
2022-12-09T16:46:02.174Z,98827.66
2022-12-09T16:48:32.778Z,98827.72
2022-12-09T16:51:12.279Z,98824.16
2022-12-09T16:54:19.702Z,98828.50
2022-12-09T16:56:50.881Z,98828.88
2022-12-09T16:59:20.518Z,98820.13
2022-12-09T17:01:50.701Z,98824.47
2022-12-09T17:04:26.736Z,98823.38
2022-12-09T17:06:56.607Z,98822.78
2022-12-09T17:09:26.631Z,98819.38
2022-12-09T17:11:56.518Z,98821.97
2022-12-09T17:14:27.093Z,98828.88
2022-12-09T17:16:57.515Z,98830.69
2022-12-09T17:19:28.360Z,98831.63
2022-12-09T17:21:59.081Z,98824.00
2022-12-09T17:24:30.714Z,98829.31
2022-12-09T17:27:01.386Z,98824.22
2022-12-09T17:29:31.934Z,98826.00
2022-12-09T17:32:02.267Z,98823.47
2022-12-09T17:34:32.290Z,98826.94
2022-12-09T17:37:02.279Z,98818.31
2022-12-09T17:39:32.229Z,98826.91
2022-12-09T17:42:02.444Z,98833.97
2022-12-09T17:44:32.375Z,98821.75
2022-12-09T17:47:02.472Z,98825.25
2022-12-09T17:49:32.671Z,98829.50
2022-12-09T17:52:02.395Z,98839.13
2022-12-09T17:54:32.415Z,98833.09
2022-12-09T17:57:02.011Z,98830.63
2022-12-09T17:59:31.868Z,98828.78
2022-12-09T18:02:04.519Z,98827.09
2022-12-09T18:04:34.783Z,98837.53
2022-12-09T18:07:06.483Z,98832.22
2022-12-09T18:09:36.278Z,98827.25
2022-12-09T18:12:06.146Z,98829.13
2022-12-09T18:14:36.145Z,98822.41
2022-12-09T18:17:06.387Z,98823.41
2022-12-09T18:19:36.759Z,98819.28
2022-12-09T18:22:06.717Z,98824.53
2022-12-09T18:24:36.515Z,98818.88
2022-12-09T18:27:06.441Z,98812.88
2022-12-09T18:29:38.259Z,98815.50
2022-12-09T18:32:08.139Z,98810.31
2022-12-09T18:34:38.116Z,98812.16
2022-12-09T18:37:07.716Z,98813.88
2022-12-09T18:39:38.809Z,98804.47
2022-12-09T18:42:10.155Z,98808.09
2022-12-09T18:44:39.943Z,98815.06
2022-12-09T18:47:09.578Z,98812.44
2022-12-09T18:49:42.346Z,98819.50
2022-12-09T18:52:14.235Z,98819.50
2022-12-09T18:54:45.772Z,98822.78
2022-12-09T18:57:18.910Z,98823.47
2022-12-09T18:59:51.800Z,98815.66
2022-12-09T19:02:23.577Z,98809.69
2022-12-09T19:04:57.395Z,98820.97
2022-12-09T19:07:32.549Z,98809.75
2022-12-09T19:10:03.363Z,98815.91
2022-12-09T19:12:52.668Z,98819.31
2022-12-09T19:15:24.072Z,98814.88
2022-12-09T19:17:53.776Z,98820.13
2022-12-09T19:20:24.470Z,98821.91
2022-12-09T19:22:54.287Z,98815.81
2022-12-09T19:25:24.416Z,98807.94
2022-12-09T19:27:54.257Z,98811.28
2022-12-09T19:30:24.064Z,98810.41
2022-12-09T19:32:55.203Z,98806.16
2022-12-09T19:35:24.850Z,98811.53
2022-12-09T19:37:59.512Z,98805.50
2022-12-09T19:40:31.033Z,98803.72
2022-12-09T19:43:00.605Z,98816.78
2022-12-09T19:45:30.848Z,98808.84
2022-12-09T19:48:00.407Z,98806.38
2022-12-09T19:50:30.295Z,98807.34
2022-12-09T19:53:00.481Z,98810.78
2022-12-09T19:55:30.336Z,98816.09
2022-12-09T19:58:00.113Z,98810.13
2022-12-09T20:00:29.808Z,98807.63
2022-12-09T20:03:01.563Z,98804.22
2022-12-09T20:05:31.292Z,98808.72
2022-12-09T20:08:00.979Z,98810.50
2022-12-09T20:10:30.632Z,98813.91
2022-12-09T20:13:01.025Z,98810.50
2022-12-09T20:15:30.627Z,98810.56
2022-12-09T20:18:00.092Z,98812.31
2022-12-09T20:20:29.821Z,98812.34
2022-12-09T20:22:59.613Z,98819.28
2022-12-09T20:25:29.617Z,98811.50
2022-12-09T20:27:59.476Z,98805.53
2022-12-09T20:30:30.797Z,98814.09
2022-12-09T20:33:01.100Z,98802.16
2022-12-09T20:35:30.753Z,98803.13
2022-12-09T20:38:00.339Z,98805.69
2022-12-09T20:40:30.118Z,98799.75
2022-12-09T20:42:59.886Z,98798.84
2022-12-09T20:45:29.455Z,98803.16
2022-12-09T20:47:59.283Z,98809.28
2022-12-09T20:50:31.188Z,98800.91
2022-12-09T20:53:05.084Z,98806.91
2022-12-09T20:55:34.767Z,98809.69
2022-12-09T20:58:04.384Z,98805.22
2022-12-09T21:00:34.077Z,98797.56
2022-12-09T21:03:03.567Z,98808.03
2022-12-09T21:05:33.425Z,98801.13
2022-12-09T21:08:03.094Z,98795.00
2022-12-09T21:10:33.047Z,98801.88
2022-12-09T21:13:02.885Z,98800.19
2022-12-09T21:15:32.958Z,98792.41
2022-12-09T21:18:02.579Z,98794.94
2022-12-09T21:20:31.848Z,98793.28
2022-12-09T21:23:32.364Z,98798.53
2022-12-09T21:25:51.296Z,98794.16
2022-12-09T21:28:21.138Z,98804.81
2022-12-09T21:30:50.767Z,98799.91
2022-12-09T21:33:20.629Z,98799.78
2022-12-09T21:35:50.488Z,98799.78
2022-12-09T21:38:20.067Z,98799.69
2022-12-09T21:40:50.164Z,98797.13
2022-12-09T21:43:20.055Z,98790.06
2022-12-09T21:45:49.674Z,98791.78
2022-12-09T21:48:19.605Z,98794.31
2022-12-09T21:50:56.270Z,98792.41
2022-12-09T21:53:26.174Z,98788.28
2022-12-09T21:55:55.877Z,98787.38
2022-12-09T21:58:25.794Z,98786.53
2022-12-09T22:00:55.423Z,98785.66
2022-12-09T22:03:25.390Z,98783.13
2022-12-09T22:05:58.315Z,98784.84
2022-12-09T22:08:28.685Z,98784.88
2022-12-09T22:10:59.730Z,98790.06
2022-12-09T22:13:31.896Z,98782.25
2022-12-09T22:16:25.076Z,98799.34
2022-12-09T22:18:57.356Z,98796.66
2022-12-09T22:21:30.318Z,98790.53
2022-12-09T22:24:04.115Z,98788.75
2022-12-09T22:26:34.653Z,98787.75
2022-12-09T22:29:08.235Z,98788.41
2022-12-09T22:31:40.506Z,98782.31
2022-12-09T22:34:14.016Z,98782.97
2022-12-09T22:36:44.624Z,98791.69
2022-12-09T22:39:17.609Z,98787.34
2022-12-09T22:41:47.853Z,98784.78
2022-12-09T22:44:20.006Z,98788.19
2022-12-09T22:46:49.929Z,98784.03
2022-12-09T22:49:20.518Z,98783.13
2022-12-09T22:51:50.463Z,98785.72
2022-12-09T22:54:20.304Z,98785.72
2022-12-09T22:56:50.015Z,98776.28
2022-12-09T22:59:21.372Z,98772.78
2022-12-09T23:01:52.694Z,98773.53
2022-12-09T23:04:26.178Z,98774.50
2022-12-09T23:06:56.023Z,98777.97
2022-12-09T23:09:26.804Z,98774.56
2022-12-09T23:11:56.548Z,98766.91
2022-12-09T23:14:25.845Z,98774.78
2022-12-09T23:16:55.733Z,98774.06
2022-12-09T23:19:25.241Z,98774.97
2022-12-09T23:21:54.730Z,98779.34
2022-12-09T23:24:25.165Z,98782.06
2022-12-09T23:26:57.190Z,98786.34
2022-12-09T23:29:27.174Z,98789.91
2022-12-09T23:31:56.909Z,98787.34
2022-12-09T23:34:27.694Z,98784.78
2022-12-09T23:36:57.435Z,98790.03
2022-12-09T23:39:26.757Z,98794.34
2022-12-09T23:42:17.625Z,98798.66
2022-12-09T23:44:47.624Z,98794.31
2022-12-09T23:47:17.892Z,98794.25
2022-12-09T23:49:47.938Z,98801.16
2022-12-09T23:52:17.556Z,98808.84
2022-12-09T23:54:47.308Z,98819.06
2022-12-09T23:57:16.860Z,98808.72
2022-12-09T23:59:46.293Z,98813.03
